createdAt,value
2018-06-05T00:02:00.287Z,2.57
2018-06-05T00:07:55.207Z,2.43
2018-06-05T00:13:50.227Z,2.89
2018-06-05T00:19:45.225Z,2.43
2018-06-05T00:25:40.208Z,2.19
2018-06-05T00:31:35.249Z,2.44
2018-06-05T00:37:30.191Z,2.07
2018-06-05T00:43:25.258Z,2.14
2018-06-05T00:49:20.200Z,2.29
2018-06-05T00:55:15.305Z,2.14
2018-06-05T01:01:10.217Z,2.02
2018-06-05T01:07:05.203Z,2.15
2018-06-05T01:13:00.207Z,2.58
2018-06-05T01:18:55.226Z,2.22
2018-06-05T01:24:50.189Z,2.42
2018-06-05T01:30:45.235Z,2.41
2018-06-05T01:36:40.237Z,2.75
2018-06-05T01:42:35.254Z,2.72
2018-06-05T01:48:30.304Z,2.44
2018-06-05T01:54:25.200Z,3
2018-06-05T02:00:20.189Z,2.32
2018-06-05T02:06:15.212Z,2.63
2018-06-05T02:12:10.254Z,2.68
2018-06-05T02:18:05.212Z,2.85
2018-06-05T02:24:00.280Z,3.5
2018-06-05T02:29:55.228Z,3.13
2018-06-05T02:35:50.220Z,2.94
2018-06-05T02:41:45.205Z,2.88
2018-06-05T02:47:40.213Z,3.12
2018-06-05T02:53:35.231Z,2.95
2018-06-05T02:59:30.240Z,2.42
2018-06-05T03:05:25.273Z,2.82
2018-06-05T03:11:20.283Z,2.79
2018-06-05T03:17:15.238Z,3.07
2018-06-05T03:23:10.935Z,2.7
2018-06-05T03:29:05.241Z,2.94
2018-06-05T03:35:00.230Z,2.59
2018-06-05T03:40:55.247Z,2.28
2018-06-05T03:46:50.232Z,3.32
2018-06-05T03:52:45.255Z,3.42
2018-06-05T03:58:40.260Z,2.67
2018-06-05T04:04:35.273Z,3.15
2018-06-05T04:10:30.244Z,3.31
2018-06-05T04:16:25.246Z,3.17
2018-06-05T04:22:20.296Z,3.52
2018-06-05T04:28:15.250Z,3.74
2018-06-05T04:34:10.283Z,3
2018-06-05T04:40:05.262Z,3.36
2018-06-05T04:46:00.229Z,4.2
2018-06-05T04:51:55.234Z,4.33
2018-06-05T04:57:50.296Z,4.29
2018-06-05T05:03:45.206Z,4.19
2018-06-05T05:09:40.316Z,4.84
2018-06-05T05:15:35.284Z,4.09
2018-06-05T05:21:30.242Z,4.09
2018-06-05T05:27:25.239Z,3.87
2018-06-05T05:33:20.239Z,4.27
2018-06-05T05:39:15.295Z,5.35
2018-06-05T05:45:10.722Z,4.74
2018-06-05T05:51:05.234Z,4.93
2018-06-05T05:57:00.245Z,3.68
2018-06-05T06:02:55.433Z,3.35
2018-06-05T06:08:50.239Z,4.06
2018-06-05T06:14:45.261Z,4.4
2018-06-05T06:20:40.407Z,3.94
2018-06-05T06:26:35.446Z,4.33
2018-06-05T06:32:30.285Z,4.19
2018-06-05T06:38:25.283Z,5.01
2018-06-05T06:44:20.301Z,6.97
2018-06-05T06:50:15.234Z,4.27
2018-06-05T06:56:10.243Z,3.87
2018-06-05T07:02:05.644Z,3.71
2018-06-05T07:08:00.365Z,3.85
2018-06-05T07:13:55.256Z,4.34
2018-06-05T07:19:50.342Z,4.23
2018-06-05T07:25:45.367Z,4.29
2018-06-05T07:31:40.877Z,4.93
2018-06-05T07:37:35.324Z,4.86
2018-06-05T07:43:30.244Z,4.46
2018-06-05T07:49:25.337Z,5.06
2018-06-05T07:55:20.346Z,4.47
2018-06-05T08:01:15.526Z,4.34
2018-06-05T08:07:10.540Z,4.77
2018-06-05T08:13:05.306Z,4.02
2018-06-05T08:19:00.276Z,3.84
2018-06-05T08:24:55.309Z,4.9
2018-06-05T08:30:50.309Z,4.93
2018-06-05T08:36:45.305Z,4.88
2018-06-05T08:42:40.330Z,5.25
2018-06-05T08:48:35.291Z,4.58
2018-06-05T08:54:30.368Z,5.18
2018-06-05T09:00:25.276Z,5
2018-06-05T09:06:20.322Z,6.2
2018-06-05T09:12:15.372Z,5.3
2018-06-05T09:18:10.276Z,5.85
2018-06-05T09:24:05.332Z,5.53
2018-06-05T09:30:00.332Z,5.53
2018-06-05T09:35:55.363Z,5.89
2018-06-05T09:41:50.328Z,5.77
2018-06-05T09:47:45.384Z,5.35
2018-06-05T09:53:40.286Z,5.2
2018-06-05T09:59:35.292Z,5.79
2018-06-05T10:05:30.339Z,5.83
2018-06-05T10:11:25.301Z,4.71
2018-06-05T10:17:20.310Z,4.99
2018-06-05T10:23:15.338Z,4.79
2018-06-05T10:29:10.319Z,4.81
2018-06-05T10:35:05.345Z,5.47
2018-06-05T10:41:00.335Z,4.76
2018-06-05T10:46:55.337Z,5.2
2018-06-05T10:52:50.348Z,4.7
2018-06-05T10:58:45.375Z,4.7
2018-06-05T11:04:40.347Z,5.02
2018-06-05T11:10:35.327Z,4.46
2018-06-05T11:16:30.407Z,4.47
2018-06-05T11:22:25.338Z,4.69
2018-06-05T11:28:20.384Z,4.86
2018-06-05T11:34:15.341Z,4.85
2018-06-05T11:40:10.359Z,4.97
2018-06-05T11:46:05.382Z,5.23
2018-06-05T11:52:00.344Z,4.36
2018-06-05T11:57:55.380Z,4.26
2018-06-05T12:03:50.420Z,4.19
2018-06-05T12:09:45.372Z,3.72
2018-06-05T12:15:40.391Z,4.12
2018-06-05T12:21:35.395Z,4.21
2018-06-05T12:27:30.406Z,3.57
2018-06-05T12:33:25.377Z,3.64
2018-06-05T12:39:20.491Z,3.86
2018-06-05T12:45:15.426Z,3.45
2018-06-05T12:51:10.386Z,3.1
2018-06-05T12:57:05.415Z,3.06
2018-06-05T13:03:00.361Z,3.49
2018-06-05T13:08:55.429Z,3.92
2018-06-05T13:14:50.419Z,3.63
2018-06-05T13:20:45.474Z,3
2018-06-05T13:26:40.543Z,2.6
2018-06-05T13:32:35.404Z,2.44
2018-06-05T13:38:30.605Z,2.5
2018-06-05T13:44:25.442Z,2.03
2018-06-05T13:50:20.454Z,2.2
2018-06-05T13:56:15.434Z,2.2
2018-06-05T14:02:10.417Z,2.04
2018-06-05T14:08:05.509Z,1.94
2018-06-05T14:14:00.427Z,2.15
2018-06-05T14:19:55.438Z,2.13
2018-06-05T14:25:50.453Z,1.72
2018-06-05T14:31:45.413Z,1.81
2018-06-05T14:37:40.417Z,1.83
2018-06-05T14:43:35.405Z,1.68
2018-06-05T14:49:30.437Z,1.93
2018-06-05T14:55:25.417Z,1.84
2018-06-05T15:01:20.438Z,1.97
2018-06-05T15:07:15.487Z,1.38
2018-06-05T15:13:10.624Z,1.58
2018-06-05T15:19:05.445Z,1.25
2018-06-05T15:25:00.448Z,1.58
2018-06-05T15:30:55.459Z,1.46
2018-06-05T15:36:50.563Z,1.41
2018-06-05T15:42:45.473Z,1.37
2018-06-05T15:48:40.470Z,1.63
2018-06-05T15:54:35.481Z,1.72
2018-06-05T16:00:30.477Z,1.68
2018-06-05T16:06:25.457Z,1.57
2018-06-05T16:12:20.455Z,1.17
2018-06-05T16:18:15.464Z,1.6
2018-06-05T16:24:10.465Z,1.22
2018-06-05T16:30:05.467Z,1.31
2018-06-05T16:36:00.520Z,1.2
2018-06-05T16:41:55.506Z,1.32
2018-06-05T16:47:50.457Z,1.35
2018-06-05T16:53:45.500Z,1.35
2018-06-05T16:59:40.472Z,1.45
2018-06-05T17:05:35.517Z,1.37
2018-06-05T17:11:30.605Z,1.6
2018-06-05T17:17:25.554Z,1.75
2018-06-05T17:23:20.507Z,1.44
2018-06-05T17:29:15.496Z,4.2
2018-06-05T17:35:10.484Z,2.35
2018-06-05T17:41:05.476Z,4.96
2018-06-05T17:47:00.505Z,13.36
2018-06-05T17:52:55.533Z,6.56
2018-06-05T17:58:50.481Z,3.67
2018-06-05T18:04:45.568Z,4.76
2018-06-05T18:10:40.478Z,7.6
2018-06-05T18:16:35.525Z,2.73
2018-06-05T18:22:30.506Z,2.4
2018-06-05T18:28:25.549Z,2.52
2018-06-05T18:34:20.510Z,1.94
2018-06-05T18:40:15.560Z,1.76
2018-06-05T18:46:10.573Z,1.79
2018-06-05T18:52:05.529Z,1.92
2018-06-05T18:58:00.530Z,1.64
2018-06-05T19:03:55.597Z,2.1
2018-06-05T19:09:50.603Z,2.68
2018-06-05T19:15:45.540Z,2.92
2018-06-05T19:21:40.543Z,2.74
2018-06-05T19:27:35.566Z,2.54
2018-06-05T19:33:30.553Z,3.03
2018-06-05T19:39:25.545Z,2.03
2018-06-05T19:45:20.540Z,2.84
2018-06-05T19:51:15.556Z,2.52
2018-06-05T19:57:10.531Z,2.41
2018-06-05T20:03:05.563Z,3.55
2018-06-05T20:09:00.572Z,3.38
2018-06-05T20:14:55.528Z,2.79
2018-06-05T20:20:50.636Z,3.08
2018-06-05T20:26:45.585Z,2.32
2018-06-05T20:32:40.553Z,3.22
2018-06-05T20:38:35.563Z,3.85
2018-06-05T20:44:30.575Z,2.8
2018-06-05T20:50:25.546Z,2.89
2018-06-05T20:56:20.575Z,2.98
2018-06-05T21:02:15.618Z,2.62
2018-06-05T21:08:10.605Z,2.78
2018-06-05T21:14:05.551Z,3.03
2018-06-05T21:20:00.611Z,2.52
2018-06-05T21:25:55.584Z,2.84
2018-06-05T21:31:50.585Z,2.62
2018-06-05T21:37:45.574Z,3.07
2018-06-05T21:43:40.607Z,2.79
2018-06-05T21:49:35.597Z,2.92
2018-06-05T21:55:30.577Z,2.74
2018-06-05T22:01:25.640Z,2.86
2018-06-05T22:07:20.563Z,3.15
2018-06-05T22:13:15.630Z,3.08
2018-06-05T22:19:10.597Z,2.95
2018-06-05T22:25:05.577Z,3.7
2018-06-05T22:31:00.633Z,3
2018-06-05T22:36:55.668Z,2.67
2018-06-05T22:42:50.646Z,3.36
2018-06-05T22:48:45.595Z,2.94
2018-06-05T22:54:40.594Z,3.47
2018-06-05T23:00:35.684Z,2.9
2018-06-05T23:06:30.837Z,3.2
2018-06-05T23:12:25.621Z,3.53
2018-06-05T23:18:20.611Z,3.23
2018-06-05T23:24:15.611Z,3.87
2018-06-05T23:30:10.596Z,3.31
2018-06-05T23:36:05.669Z,3.28
2018-06-05T23:42:00.614Z,3.6
2018-06-05T23:47:55.659Z,3.25
2018-06-05T23:53:50.628Z,3.56
2018-06-05T23:59:45.659Z,3.32
